Time;durP1;ratioP1;P1;durP2;ratioP2;P2;SDS_P1;SDS_P2;PMS_P1;PMS_P2;Temp;Humidity;BMP_temperature;BMP_pressure;BME280_temperature;BME280_humidity;BME280_pressure;Samples;Min_cycle;Max_cycle;Signal;HPM_P1;HPM_P2
2023/08/27 00:02:54;;;;;;;;;;;;;;;17.35;100.00;95251.25;10119780;29;2155;-79
2023/08/27 00:07:57;;;;;;;;;;;;;;;17.20;100.00;95252.63;10125404;29;2062;-80
2023/08/27 00:12:59;;;;;;;;;;;;;;;17.12;100.00;95232.53;10124075;29;1990;-80
2023/08/27 00:18:03;;;;;;;;;;;;;;;17.05;100.00;95223.28;10127109;29;4599;-80
2023/08/27 00:23:06;;;;;;;;;;;;;;;17.13;100.00;95225.19;10121828;29;1946;-82
2023/08/27 00:28:09;;;;;;;;;;;;;;;17.24;100.00;95210.91;10129269;29;2105;-82
2023/08/27 00:33:12;;;;;;;;;;;;;;;17.33;100.00;95239.94;10130675;29;1915;-81
2023/08/27 00:38:14;;;;;;;;;;;;;;;17.39;100.00;95235.91;10131104;29;1993;-77
2023/08/27 00:43:16;;;;;;;;;;;;;;;17.41;100.00;95215.41;10124694;29;2287;-80
2023/08/27 00:48:19;;;;;;;;;;;;;;;17.36;100.00;95195.78;10125310;29;2095;-78
2023/08/27 00:53:21;;;;;;;;;;;;;;;17.30;100.00;95192.47;10127133;29;1898;-77
2023/08/27 00:58:24;;;;;;;;;;;;;;;17.23;100.00;95181.34;10127279;29;2259;-81
2023/08/27 01:03:26;;;;;;;;;;;;;;;17.17;100.00;95169.88;10146175;29;1938;-81
2023/08/27 01:08:29;;;;;;;;;;;;;;;17.15;100.00;95155.84;10146396;29;2271;-81
2023/08/27 01:13:31;;;;;;;;;;;;;;;17.15;100.00;95152.31;10126214;29;1994;-78
2023/08/27 01:18:34;;;;;;;;;;;;;;;17.36;100.00;95141.47;10127854;29;4545;-81
2023/08/27 01:23:36;;;;;;;;;;;;;;;17.31;100.00;95152.53;10126285;29;1948;-79
2023/08/27 01:28:38;;;;;;;;;;;;;;;17.43;100.00;95149.88;10116393;29;2019;-78
2023/08/27 01:34:00;;;;;;;;;;;;;;;17.16;100.00;95152.00;10118076;29;1989;-80
2023/08/27 01:39:03;;;;;;;;;;;;;;;17.02;100.00;95127.81;10111437;29;2179;-81
2023/08/27 01:44:06;;;;;;;;;;;;;;;16.86;100.00;95124.09;10128355;29;1925;-81
2023/08/27 01:49:08;;;;;;;;;;;;;;;16.53;100.00;95134.75;10120512;29;2043;-81
2023/08/27 01:54:10;;;;;;;;;;;;;;;16.58;100.00;95141.94;10125206;29;1984;-80
2023/08/27 01:59:13;;;;;;;;;;;;;;;16.50;100.00;95132.72;10120633;29;1983;-84
2023/08/27 02:04:15;;;;;;;;;;;;;;;16.53;100.00;95133.97;10121010;29;2004;-81
2023/08/27 02:09:18;;;;;;;;;;;;;;;16.40;100.00;95135.78;10120519;29;2011;-80
2023/08/27 02:14:21;;;;;;;;;;;;;;;16.41;100.00;95137.38;10119981;29;4576;-80
2023/08/27 02:19:23;;;;;;;;;;;;;;;16.40;100.00;95130.34;10118323;29;1981;-84
2023/08/27 02:24:30;;;;;;;;;;;;;;;16.32;100.00;95131.19;10119813;29;2036;-81
2023/08/27 02:29:36;;;;;;;;;;;;;;;16.19;100.00;95141.13;10130275;29;2061;-81
2023/08/27 02:34:40;;;;;;;;;;;;;;;16.18;100.00;95153.09;10122843;29;2375;-81
2023/08/27 02:39:44;;;;;;;;;;;;;;;16.15;100.00;95140.97;10125946;29;1997;-82
2023/08/27 02:44:48;;;;;;;;;;;;;;;16.17;100.00;95156.94;10119697;29;1935;-80
2023/08/27 02:50:16;;;;;;;;;;;;;;;16.21;100.00;95164.09;10124856;29;2016;-80
2023/08/27 02:55:19;;;;;;;;;;;;;;;16.14;100.00;95165.72;10125438;29;1985;-79
2023/08/27 03:00:26;;;;;;;;;;;;;;;16.13;100.00;95170.34;10112532;29;1986;-80
2023/08/27 03:05:32;;;;;;;;;;;;;;;16.14;100.00;95154.88;10127868;29;1935;-79
2023/08/27 03:10:37;;;;;;;;;;;;;;;16.29;100.00;95151.63;10126966;29;2005;-78
2023/08/27 03:15:45;;;;;;;;;;;;;;;16.23;100.00;95154.84;10112038;29;1931;-78
2023/08/27 03:20:53;;;;;;;;;;;;;;;16.19;100.00;95162.81;10117887;29;1997;-78
2023/08/27 03:26:00;;;;;;;;;;;;;;;16.12;100.00;95174.16;10125781;29;1970;-77
2023/08/27 03:31:04;;;;;;;;;;;;;;;16.10;100.00;95192.69;10124168;29;2417;-77
2023/08/27 03:36:25;;;;;;;;;;;;;;;16.10;100.00;95198.09;10129261;29;6181;-77
2023/08/27 03:41:29;;;;;;;;;;;;;;;16.18;100.00;95191.88;10145590;29;5539;-77
2023/08/27 03:46:36;;;;;;;;;;;;;;;15.99;100.00;95145.34;10144918;29;1949;-79
2023/08/27 03:51:41;;;;;;;;;;;;;;;15.77;100.00;95156.38;10157933;29;5547;-77
2023/08/27 03:56:48;;;;;;;;;;;;;;;15.79;100.00;95173.91;10162583;29;1987;-77
2023/08/27 04:02:01;;;;;;;;;;;;;;;15.97;100.00;95180.13;10159068;29;1986;-76
2023/08/27 04:12:34;;;;;;;;;;;;;;;16.08;100.00;95172.41;10162942;29;1969;-78
2023/08/27 04:17:55;;;;;;;;;;;;;;;16.12;100.00;95174.16;10156484;29;1993;-75
2023/08/27 04:23:13;;;;;;;;;;;;;;;16.24;100.00;95197.13;10157058;29;2020;-76
2023/08/27 04:28:16;;;;;;;;;;;;;;;16.32;100.00;95201.72;10140507;29;2072;-76
2023/08/27 04:33:19;;;;;;;;;;;;;;;16.30;100.00;95190.41;10152548;29;2089;-76
2023/08/27 04:38:25;;;;;;;;;;;;;;;16.36;100.00;95189.09;10154647;29;2021;-75
2023/08/27 04:43:32;;;;;;;;;;;;;;;16.39;100.00;95191.16;10154185;29;6448;-75
2023/08/27 04:48:38;;;;;;;;;;;;;;;16.43;100.00;95194.81;10145723;29;1947;-75
2023/08/27 04:53:44;;;;;;;;;;;;;;;16.38;100.00;95200.41;10156114;29;1978;-76
2023/08/27 04:58:51;;;;;;;;;;;;;;;16.27;100.00;95186.41;10161528;29;2025;-76
2023/08/27 05:04:01;;;;;;;;;;;;;;;16.42;100.00;95193.25;10154346;29;2088;-75
2023/08/27 05:09:10;;;;;;;;;;;;;;;16.37;100.00;95212.41;10153185;29;1979;-76
2023/08/27 05:14:15;;;;;;;;;;;;;;;16.35;100.00;95220.03;10150589;29;1991;-77
2023/08/27 05:19:28;;;;;;;;;;;;;;;16.33;100.00;95211.44;10155277;29;2001;-78
2023/08/27 05:24:32;;;;;;;;;;;;;;;16.26;100.00;95205.72;10161816;29;1984;-79
2023/08/27 05:29:38;;;;;;;;;;;;;;;16.17;100.00;95225.53;10153546;29;1986;-77
2023/08/27 05:34:44;;;;;;;;;;;;;;;16.24;100.00;95240.50;10151258;29;2034;-77
2023/08/27 05:39:54;;;;;;;;;;;;;;;16.20;100.00;95227.56;10151787;29;2002;-79
2023/08/27 05:44:59;;;;;;;;;;;;;;;16.18;100.00;95231.75;10157471;29;1954;-79
2023/08/27 05:50:13;;;;;;;;;;;;;;;16.14;100.00;95228.84;10161946;29;2077;-80
2023/08/27 05:55:21;;;;;;;;;;;;;;;16.10;100.00;95229.84;10162257;29;1937;-80
2023/08/27 06:00:36;;;;;;;;;;;;;;;16.13;100.00;95219.13;10143626;29;2058;-78
2023/08/27 06:05:38;;;;;;;;;;;;;;;16.21;100.00;95223.75;10141730;29;2066;-79
2023/08/27 06:10:45;;;;;;;;;;;;;;;16.24;100.00;95237.78;10150362;29;1912;-82
2023/08/27 06:15:49;;;;;;;;;;;;;;;16.27;100.00;95246.06;10170214;29;1893;-80
2023/08/27 06:21:01;;;;;;;;;;;;;;;16.23;100.00;95252.47;10167899;29;2314;-80
2023/08/27 06:26:04;;;;;;;;;;;;;;;16.23;100.00;95255.19;10170532;29;1983;-80
2023/08/27 06:31:14;;;;;;;;;;;;;;;16.31;100.00;95262.50;10156365;29;2124;-78
2023/08/27 06:36:36;;;;;;;;;;;;;;;16.20;100.00;95260.13;10155530;29;2372;-77
2023/08/27 06:41:54;;;;;;;;;;;;;;;16.24;100.00;95251.34;10157405;29;4561;-80
2023/08/27 06:46:58;;;;;;;;;;;;;;;16.11;100.00;95250.41;10165426;29;1987;-80
2023/08/27 06:52:03;;;;;;;;;;;;;;;16.21;100.00;95237.31;10163592;29;1893;-81
2023/08/27 06:57:08;;;;;;;;;;;;;;;16.24;100.00;95240.50;10171776;29;1974;-84
2023/08/27 07:02:15;;;;;;;;;;;;;;;16.51;100.00;95229.25;10157682;29;2332;-79
2023/08/27 07:07:20;;;;;;;;;;;;;;;16.36;100.00;95227.06;10145499;29;2051;-80
2023/08/27 07:12:27;;;;;;;;;;;;;;;16.46;100.00;95221.28;10150442;29;1945;-79
2023/08/27 07:17:33;;;;;;;;;;;;;;;16.46;100.00;95210.44;10151909;29;2002;-81
2023/08/27 07:22:36;;;;;;;;;;;;;;;16.32;100.00;95215.28;10169383;29;2031;-80
2023/08/27 07:27:49;;;;;;;;;;;;;;;16.60;100.00;95242.78;10168110;29;1920;-79
2023/08/27 07:32:57;;;;;;;;;;;;;;;16.95;100.00;95248.91;10168561;29;2320;-82
2023/08/27 07:43:25;;;;;;;;;;;;;;;16.81;100.00;95259.19;10164588;29;4534;-83
2023/08/27 07:48:29;;;;;;;;;;;;;;;16.74;100.00;95252.38;10159431;29;2048;-83
2023/08/27 07:53:35;;;;;;;;;;;;;;;18.14;100.00;95266.69;10169788;29;1905;-83
2023/08/27 07:58:38;;;;;;;;;;;;;;;17.79;100.00;95256.09;10172554;29;1985;-84
2023/08/27 08:03:43;;;;;;;;;;;;;;;17.42;100.00;95259.69;10166920;29;2229;-82
2023/08/27 08:08:46;;;;;;;;;;;;;;;17.19;100.00;95234.75;10175609;29;2100;-82
2023/08/27 08:13:53;;;;;;;;;;;;;;;16.90;100.00;95230.09;10167818;29;1944;-83
2023/08/27 08:18:59;;;;;;;;;;;;;;;16.95;100.00;95238.06;10170124;29;1985;-80
2023/08/27 08:24:02;;;;;;;;;;;;;;;16.84;100.00;95228.69;10168065;29;2014;-81
2023/08/27 08:29:06;;;;;;;;;;;;;;;17.18;100.00;95252.97;10153592;29;2329;-82
2023/08/27 08:34:12;;;;;;;;;;;;;;;17.21;100.00;95241.44;10171303;29;1963;-83
2023/08/27 08:39:21;;;;;;;;;;;;;;;17.36;100.00;95250.91;10168414;29;1962;-83
2023/08/27 08:44:28;;;;;;;;;;;;;;;17.57;100.00;95248.25;10155894;29;1923;-82
2023/08/27 08:49:34;;;;;;;;;;;;;;;17.68;100.00;95263.00;10172451;29;1917;-84
2023/08/27 08:54:54;;;;;;;;;;;;;;;17.78;100.00;95265.38;10171425;29;1814;-83
2023/08/27 09:00:03;;;;;;;;;;;;;;;17.79;100.00;95261.53;10173139;29;1978;-83
2023/08/27 09:05:10;;;;;;;;;;;;;;;17.59;100.00;95261.50;10172190;29;2012;-84
2023/08/27 09:10:22;;;;;;;;;;;;;;;17.70;100.00;95258.06;10160970;29;1863;-85
2023/08/27 09:15:26;;;;;;;;;;;;;;;17.99;100.00;95259.91;10172570;29;2088;-87
2023/08/27 09:20:37;;;;;;;;;;;;;;;18.20;100.00;95254.47;10175364;29;2125;-85
2023/08/27 09:25:42;;;;;;;;;;;;;;;17.94;100.00;95267.47;10201065;28;2414;-85
2023/08/27 09:30:53;;;;;;;;;;;;;;;17.54;100.00;95276.06;10210221;29;1806;-87
2023/08/27 09:35:58;;;;;;;;;;;;;;;17.18;100.00;95280.13;10199511;29;1946;-85
2023/08/27 09:41:08;;;;;;;;;;;;;;;17.05;100.00;95292.00;10170000;29;2014;-86
2023/08/27 09:46:16;;;;;;;;;;;;;;;16.93;100.00;95275.59;10175932;29;2149;-86
2023/08/27 09:51:21;;;;;;;;;;;;;;;16.90;100.00;95268.09;10157755;29;1847;-87
2023/08/27 09:56:35;;;;;;;;;;;;;;;16.64;100.00;95254.59;10171514;29;1932;-83
2023/08/27 10:01:40;;;;;;;;;;;;;;;16.73;100.00;95258.91;10171240;29;2025;-91
2023/08/27 10:06:46;;;;;;;;;;;;;;;16.49;100.00;95258.63;10167587;29;1816;-87
2023/08/27 10:11:49;;;;;;;;;;;;;;;16.45;100.00;95247.63;10152361;29;1921;-82
2023/08/27 10:16:55;;;;;;;;;;;;;;;16.40;100.00;95260.56;10154340;29;1902;-88
2023/08/27 10:22:24;;;;;;;;;;;;;;;16.38;100.00;95260.09;10172503;29;2347;-82
2023/08/27 10:27:29;;;;;;;;;;;;;;;16.36;100.00;95252.28;10186402;29;1864;-88
2023/08/27 10:32:44;;;;;;;;;;;;;;;16.08;100.00;95226.66;10168003;29;1830;-88
2023/08/27 10:37:48;;;;;;;;;;;;;;;17.19;100.00;95237.47;10175029;29;1872;-89
2023/08/27 10:42:58;;;;;;;;;;;;;;;17.21;100.00;95236.00;10153979;29;1964;-86
2023/08/27 10:48:03;;;;;;;;;;;;;;;17.26;100.00;95224.16;10175899;29;1901;-87
2023/08/27 10:53:09;;;;;;;;;;;;;;;17.02;100.00;95232.91;10177786;29;1818;-85
2023/08/27 10:58:17;;;;;;;;;;;;;;;17.54;100.00;95243.44;10156653;29;1942;-86
2023/08/27 11:03:21;;;;;;;;;;;;;;;17.53;100.00;95241.88;10174284;29;1906;-86
2023/08/27 11:08:26;;;;;;;;;;;;;;;17.93;100.00;95244.94;10180058;29;1949;-89
2023/08/27 11:13:31;;;;;;;;;;;;;;;17.97;100.00;95261.38;10191631;28;1924;-92
2023/08/27 11:18:36;;;;;;;;;;;;;;;17.90;100.00;95253.78;10205980;28;1975;-90
2023/08/27 11:23:44;;;;;;;;;;;;;;;18.02;100.00;95247.59;10203856;28;1920;-91
2023/08/27 11:28:50;;;;;;;;;;;;;;;18.05;100.00;95246.91;10188630;29;2046;-83
2023/08/27 11:33:58;;;;;;;;;;;;;;;18.15;100.00;95254.69;10169356;29;1958;-84
2023/08/27 11:39:01;;;;;;;;;;;;;;;18.31;100.00;95260.28;10171199;29;1905;-90
2023/08/27 11:44:06;;;;;;;;;;;;;;;18.41;100.00;95270.75;10155669;29;4537;-85
2023/08/27 11:49:12;;;;;;;;;;;;;;;18.38;100.00;95271.41;10174723;29;1913;-82
2023/08/27 11:54:24;;;;;;;;;;;;;;;18.22;100.00;95275.91;10160897;29;1984;-84
2023/08/27 11:59:30;;;;;;;;;;;;;;;18.33;100.00;95269.72;10172612;29;1928;-84
2023/08/27 12:04:34;;;;;;;;;;;;;;;18.18;100.00;95280.41;10177028;29;1916;-87
2023/08/27 12:09:48;;;;;;;;;;;;;;;18.08;100.00;95298.72;10171068;29;1885;-87
2023/08/27 12:14:53;;;;;;;;;;;;;;;17.81;100.00;95312.84;10173950;29;2445;-86
2023/08/27 12:19:57;;;;;;;;;;;;;;;17.83;100.00;95316.03;10178741;29;1981;-92
2023/08/27 12:25:01;;;;;;;;;;;;;;;17.69;100.00;95323.63;10176920;29;1991;-85
2023/08/27 12:30:07;;;;;;;;;;;;;;;17.56;100.00;95307.25;10171948;29;1393;-82
2023/08/27 12:35:20;;;;;;;;;;;;;;;17.58;100.00;95285.16;10154821;29;1731;-82
2023/08/27 12:40:24;;;;;;;;;;;;;;;17.17;100.00;95285.84;10166525;29;1911;-81
2023/08/27 12:45:30;;;;;;;;;;;;;;;17.22;100.00;95296.53;10164264;29;4902;-77
2023/08/27 12:50:35;;;;;;;;;;;;;;;17.35;100.00;95295.50;10163562;29;1504;-81
2023/08/27 12:55:40;;;;;;;;;;;;;;;17.37;100.00;95297.91;10161628;29;1518;-81
2023/08/27 13:00:46;;;;;;;;;;;;;;;17.45;100.00;95299.78;10164243;29;1915;-79
2023/08/27 13:11:20;;;;;;;;;;;;;;;17.28;100.00;95296.03;10599595;27;1639;-76
2023/08/27 13:16:22;;;;;;;;;;;;;;;17.33;100.00;95302.41;10573716;27;1929;-78
2023/08/27 13:21:25;;;;;;;;;;;;;;;17.31;100.00;95299.22;10553577;28;1913;-78
2023/08/27 13:26:28;;;;;;;;;;;;;;;17.21;100.00;95300.38;10556335;28;2016;-77
2023/08/27 13:31:30;;;;;;;;;;;;;;;17.56;100.00;95284.69;10566074;28;1889;-78
2023/08/27 13:36:33;;;;;;;;;;;;;;;17.63;100.00;95274.09;10565002;28;1985;-79
2023/08/27 13:41:36;;;;;;;;;;;;;;;17.54;100.00;95259.75;10579725;28;4536;-83
2023/08/27 13:46:39;;;;;;;;;;;;;;;17.74;100.00;95259.00;10568552;28;2014;-82
2023/08/27 13:51:41;;;;;;;;;;;;;;;18.28;100.00;95239.19;10560180;28;1945;-77
2023/08/27 13:56:44;;;;;;;;;;;;;;;18.37;100.00;95216.19;10565868;28;1979;-87
2023/08/27 14:01:48;;;;;;;;;;;;;;;18.50;100.00;95216.22;10563324;28;1905;-85
2023/08/27 14:06:51;;;;;;;;;;;;;;;18.67;100.00;95202.44;10563362;28;2360;-86
2023/08/27 14:11:53;;;;;;;;;;;;;;;18.84;100.00;95177.75;10555840;28;1889;-84
2023/08/27 14:16:56;;;;;;;;;;;;;;;19.19;100.00;95166.34;10567229;28;1991;-81
2023/08/27 14:21:58;;;;;;;;;;;;;;;18.90;100.00;95165.47;10541324;28;1894;-90
2023/08/27 14:27:00;;;;;;;;;;;;;;;18.65;100.00;95174.75;10539132;28;2117;-85
2023/08/27 14:32:04;;;;;;;;;;;;;;;18.73;100.00;95167.63;10535570;28;2015;-84
2023/08/27 14:37:06;;;;;;;;;;;;;;;19.30;100.00;95170.19;10556410;28;2002;-83
2023/08/27 14:42:08;;;;;;;;;;;;;;;19.06;100.00;95186.56;10565712;28;4463;-86
2023/08/27 14:47:11;;;;;;;;;;;;;;;18.36;100.00;95209.16;10550110;28;1907;-84
2023/08/27 14:52:13;;;;;;;;;;;;;;;18.06;100.00;95219.38;10545638;28;1906;-84
2023/08/27 14:57:16;;;;;;;;;;;;;;;18.06;100.00;95232.19;10576909;28;1890;-84
2023/08/27 15:02:18;;;;;;;;;;;;;;;18.10;100.00;95246.72;10565458;28;2439;-85
2023/08/27 15:07:21;;;;;;;;;;;;;;;18.06;100.00;95240.34;10537671;28;1987;-84
2023/08/27 15:12:24;;;;;;;;;;;;;;;17.77;100.00;95252.91;10547171;28;2040;-84
2023/08/27 15:17:26;;;;;;;;;;;;;;;17.55;100.00;95251.28;10531516;28;1890;-82
2023/08/27 15:22:29;;;;;;;;;;;;;;;17.14;100.00;95254.72;10523070;28;1920;-84
2023/08/27 15:27:32;;;;;;;;;;;;;;;16.60;100.00;95253.63;10515326;28;1953;-78
2023/08/27 15:32:34;;;;;;;;;;;;;;;16.71;100.00;95258.41;10517524;28;1865;-79
2023/08/27 15:37:37;;;;;;;;;;;;;;;16.59;100.00;95244.69;10527756;28;1775;-79
2023/08/27 15:42:40;;;;;;;;;;;;;;;17.01;100.00;95245.69;10521836;28;4533;-78
2023/08/27 15:47:42;;;;;;;;;;;;;;;16.83;100.00;95252.31;10528690;28;1993;-76
2023/08/27 15:52:45;;;;;;;;;;;;;;;16.88;100.00;95248.63;10518729;28;1874;-75
2023/08/27 15:57:47;;;;;;;;;;;;;;;17.15;100.00;95261.75;10516245;28;2558;-74
2023/08/27 16:02:50;;;;;;;;;;;;;;;17.28;100.00;95258.00;10521935;28;1855;-74
2023/08/27 16:07:52;;;;;;;;;;;;;;;17.24;100.00;95254.38;10518507;28;2044;-74
2023/08/27 16:12:55;;;;;;;;;;;;;;;17.08;100.00;95255.25;10523712;28;1922;-76
2023/08/27 16:17:57;;;;;;;;;;;;;;;17.29;100.00;95250.66;10519085;28;1920;-76
2023/08/27 16:23:00;;;;;;;;;;;;;;;17.17;100.00;95247.84;10518591;28;1882;-75
2023/08/27 16:28:03;;;;;;;;;;;;;;;17.14;100.00;95243.06;10523446;28;1914;-74
2023/08/27 16:33:06;;;;;;;;;;;;;;;17.09;100.00;95241.34;10517755;28;1897;-71
2023/08/27 16:38:08;;;;;;;;;;;;;;;16.83;100.00;95241.47;10522995;28;1908;-76
2023/08/27 16:43:10;;;;;;;;;;;;;;;16.50;100.00;95249.38;10521797;28;1914;-75
2023/08/27 16:48:13;;;;;;;;;;;;;;;16.78;100.00;95238.13;10521212;28;1910;-76
2023/08/27 16:53:16;;;;;;;;;;;;;;;16.60;100.00;95240.06;10519785;28;2254;-75
2023/08/27 16:58:18;;;;;;;;;;;;;;;16.73;100.00;95226.34;10525208;28;1882;-74
2023/08/27 17:03:20;;;;;;;;;;;;;;;16.69;100.00;95236.22;10526609;28;1952;-75
2023/08/27 17:08:23;;;;;;;;;;;;;;;16.72;100.00;95241.00;10515907;28;2290;-75
2023/08/27 17:13:25;;;;;;;;;;;;;;;16.69;100.00;95243.56;10522405;28;1992;-77
2023/08/27 17:18:28;;;;;;;;;;;;;;;16.34;100.00;95251.00;10522797;28;1541;-76
2023/08/27 17:23:30;;;;;;;;;;;;;;;16.49;100.00;95253.22;10522728;28;1454;-75
2023/08/27 17:28:33;;;;;;;;;;;;;;;16.28;100.00;95269.34;10525120;28;1914;-75
2023/08/27 17:33:35;;;;;;;;;;;;;;;16.27;100.00;95284.03;10528475;28;1431;-75
2023/08/27 17:38:37;;;;;;;;;;;;;;;16.36;100.00;95292.97;10523002;28;1501;-74
2023/08/27 17:43:40;;;;;;;;;;;;;;;16.15;100.00;95292.03;10518099;28;4517;-74
2023/08/27 17:48:42;;;;;;;;;;;;;;;15.89;100.00;95313.72;10524224;28;2353;-75
2023/08/27 17:53:45;;;;;;;;;;;;;;;15.77;100.00;95308.13;10515934;28;1772;-75
2023/08/27 17:58:47;;;;;;;;;;;;;;;15.59;100.00;95293.75;10521755;28;2002;-76
2023/08/27 18:03:49;;;;;;;;;;;;;;;15.73;100.00;95302.56;10527654;28;1854;-76
2023/08/27 18:08:52;;;;;;;;;;;;;;;16.00;100.00;95333.97;10522011;28;1961;-76
2023/08/27 18:13:54;;;;;;;;;;;;;;;15.88;100.00;95339.22;10518422;28;2043;-73
2023/08/27 18:18:57;;;;;;;;;;;;;;;15.74;100.00;95341.28;10521660;28;2008;-73
2023/08/27 18:23:59;;;;;;;;;;;;;;;15.78;100.00;95353.09;10517035;28;1913;-73
2023/08/27 18:29:01;;;;;;;;;;;;;;;15.44;100.00;95354.56;10524276;28;1966;-73
2023/08/27 18:34:04;;;;;;;;;;;;;;;15.23;100.00;95357.06;10525558;28;2000;-71
2023/08/27 18:39:06;;;;;;;;;;;;;;;15.45;100.00;95366.19;10526955;28;1874;-73
2023/08/27 18:44:09;;;;;;;;;;;;;;;15.04;100.00;95373.53;10529014;28;4540;-72
2023/08/27 18:49:11;;;;;;;;;;;;;;;15.01;100.00;95373.34;10521746;28;2308;-76
2023/08/27 18:54:14;;;;;;;;;;;;;;;14.92;100.00;95394.97;10516558;28;1981;-73
2023/08/27 18:59:16;;;;;;;;;;;;;;;15.13;100.00;95400.63;10520179;28;2102;-72
2023/08/27 19:04:21;;;;;;;;;;;;;;;14.92;100.00;95397.66;10518204;28;2059;-72
2023/08/27 19:09:23;;;;;;;;;;;;;;;15.01;100.00;95408.53;10517303;28;1950;-72
2023/08/27 19:14:26;;;;;;;;;;;;;;;14.97;100.00;95421.91;10516242;28;1962;-73
2023/08/27 19:19:28;;;;;;;;;;;;;;;15.94;100.00;95427.41;10512607;28;1918;-74
2023/08/27 19:24:31;;;;;;;;;;;;;;;16.08;100.00;95409.09;10513865;28;1948;-75
2023/08/27 19:29:33;;;;;;;;;;;;;;;15.85;100.00;95419.28;10514349;28;2031;-75
2023/08/27 19:34:36;;;;;;;;;;;;;;;15.37;100.00;95414.59;10516391;28;2031;-71
2023/08/27 19:39:39;;;;;;;;;;;;;;;15.40;100.00;95424.03;10516256;28;1982;-77
2023/08/27 19:44:41;;;;;;;;;;;;;;;15.14;100.00;95430.13;10517579;28;4548;-74
2023/08/27 19:49:44;;;;;;;;;;;;;;;15.16;100.00;95426.31;10513046;28;1973;-74
2023/08/27 19:54:46;;;;;;;;;;;;;;;14.92;100.00;95432.84;10516600;28;2085;-72
2023/08/27 19:59:48;;;;;;;;;;;;;;;14.90;100.00;95428.88;10518340;28;1874;-70
2023/08/27 20:04:51;;;;;;;;;;;;;;;14.84;100.00;95428.19;10514078;28;2053;-72
2023/08/27 20:09:53;;;;;;;;;;;;;;;14.84;100.00;95434.41;10514170;28;2092;-72
2023/08/27 20:14:56;;;;;;;;;;;;;;;15.00;100.00;95442.91;10516081;28;1926;-70
2023/08/27 20:19:58;;;;;;;;;;;;;;;14.99;100.00;95445.94;10518665;28;2091;-69
2023/08/27 20:25:01;;;;;;;;;;;;;;;14.87;100.00;95433.78;10524416;28;1933;-69
2023/08/27 20:30:03;;;;;;;;;;;;;;;14.81;100.00;95432.28;10518727;28;1985;-72
2023/08/27 20:35:06;;;;;;;;;;;;;;;14.64;100.00;95434.09;10518012;28;1981;-71
2023/08/27 20:40:09;;;;;;;;;;;;;;;14.78;100.00;95434.84;10518772;28;2394;-70
2023/08/27 20:45:12;;;;;;;;;;;;;;;14.71;100.00;95431.75;10524295;28;4489;-70
2023/08/27 20:50:16;;;;;;;;;;;;;;;14.65;100.00;95439.19;10526752;28;1973;-71
2023/08/27 20:55:18;;;;;;;;;;;;;;;14.68;100.00;95424.25;10528938;28;1908;-71
2023/08/27 21:00:21;;;;;;;;;;;;;;;14.60;100.00;95439.31;10521325;28;1811;-71
2023/08/27 21:05:24;;;;;;;;;;;;;;;14.52;100.00;95432.75;10516410;28;1977;-71
2023/08/27 21:10:26;;;;;;;;;;;;;;;14.45;100.00;95445.88;10517927;28;1909;-71
2023/08/27 21:15:28;;;;;;;;;;;;;;;14.47;100.00;95449.09;10514079;28;1878;-71
2023/08/27 21:20:31;;;;;;;;;;;;;;;14.50;100.00;95455.78;10519670;28;1926;-71
2023/08/27 21:25:33;;;;;;;;;;;;;;;14.44;100.00;95463.19;10519116;28;1831;-71
2023/08/27 21:30:36;;;;;;;;;;;;;;;14.46;100.00;95461.00;10528154;28;1913;-70
2023/08/27 21:35:38;;;;;;;;;;;;;;;14.57;100.00;95462.38;10529802;28;2315;-71
2023/08/27 21:40:42;;;;;;;;;;;;;;;14.60;100.00;95460.97;10527814;28;1870;-74
2023/08/27 21:45:45;;;;;;;;;;;;;;;14.43;100.00;95456.16;10526041;28;1883;-72
2023/08/27 21:50:47;;;;;;;;;;;;;;;14.53;100.00;95466.78;10527524;28;1916;-71
2023/08/27 21:55:50;;;;;;;;;;;;;;;14.52;100.00;95465.19;10532071;28;1930;-72
2023/08/27 22:00:52;;;;;;;;;;;;;;;14.60;100.00;95471.78;10531052;28;1908;-70
2023/08/27 22:05:55;;;;;;;;;;;;;;;14.77;100.00;95468.41;10537437;28;1954;-69
2023/08/27 22:10:57;;;;;;;;;;;;;;;14.73;100.00;95464.72;10537090;28;1971;-71
2023/08/27 22:16:00;;;;;;;;;;;;;;;14.69;100.00;95469.13;10533755;28;2006;-71
2023/08/27 22:21:03;;;;;;;;;;;;;;;14.75;100.00;95473.31;10528260;28;1863;-72
2023/08/27 22:26:05;;;;;;;;;;;;;;;14.66;100.00;95467.06;10528661;28;1859;-72
2023/08/27 22:31:08;;;;;;;;;;;;;;;14.80;100.00;95470.50;10528298;28;2297;-71
2023/08/27 22:36:10;;;;;;;;;;;;;;;14.88;100.00;95472.44;10530559;28;1875;-71
2023/08/27 22:41:13;;;;;;;;;;;;;;;14.94;100.00;95468.50;10520604;28;4624;-72
2023/08/27 22:46:15;;;;;;;;;;;;;;;14.80;100.00;95476.69;10528500;28;1985;-79
2023/08/27 22:51:17;;;;;;;;;;;;;;;14.73;100.00;95454.69;10525873;28;1987;-82
2023/08/27 22:56:20;;;;;;;;;;;;;;;14.62;100.00;95444.41;10522727;28;1960;-86
2023/08/27 23:01:22;;;;;;;;;;;;;;;14.47;100.00;95440.97;10530869;28;1945;-84
2023/08/27 23:06:25;;;;;;;;;;;;;;;14.45;100.00;95432.34;10529016;28;1952;-85
2023/08/27 23:11:27;;;;;;;;;;;;;;;14.36;100.00;95431.44;10525545;28;1910;-82
2023/08/27 23:16:29;;;;;;;;;;;;;;;14.33;100.00;95427.47;10533917;28;1894;-87
2023/08/27 23:21:32;;;;;;;;;;;;;;;14.39;100.00;95422.75;10530699;28;1968;-78
2023/08/27 23:26:35;;;;;;;;;;;;;;;14.42;100.00;95427.53;10537719;28;1870;-77
2023/08/27 23:31:37;;;;;;;;;;;;;;;14.45;100.00;95420.72;10538743;28;1914;-77
2023/08/27 23:36:39;;;;;;;;;;;;;;;14.45;100.00;95421.53;10528803;28;1970;-76
2023/08/27 23:41:42;;;;;;;;;;;;;;;14.37;100.00;95419.53;10524508;28;4504;-76
2023/08/27 23:46:44;;;;;;;;;;;;;;;14.35;100.00;95416.34;10536508;28;1927;-76
2023/08/27 23:51:46;;;;;;;;;;;;;;;14.31;100.00;95404.53;10527822;28;1957;-88
2023/08/27 23:56:49;;;;;;;;;;;;;;;14.21;100.00;95400.16;10524518;28;1820;-85
